Nearby METAR Reports

 

KISP - Islip, New York, USA
Distance from station: SW 4mi, 6km
Updated: Sat, 04/21/2018 10:56 am EDT
Few Clouds
Few Clouds
 Wind from NW
Wind: NW 12 mph , 19 km/h, Gust: 20 mph , 31 km/h
Temperature: 54°F , 12°C
Dew Point: 25°F , -4°C
Humidity: 33%
Barometer: 30.37 inHg , 1028.4 hPa
Clouds: Few Clouds
Visibility: 10 miles , 16 km
Cloud details: Few Clouds 25000 ft
2018/04/21 14:56 KISP 211456Z 32010G17KT 10SM FEW250 12/M04 A3037 RMK AO2 SLP286 T01171044 58003
KHWV - Shirley, New York, USA
Distance from station: E 10mi, 16km
Updated: Sat, 04/21/2018 10:56 am EDT
Clear
Clear
 Wind from NNW
Wind: NNW 9 mph , 15 km/h, Gust: 24 mph , 39 km/h
Temperature: 52°F , 11°C
Dew Point: 27°F , -3°C
Humidity: 38%
Barometer: 30.38 inHg , 1028.8 hPa
Clouds: Clear
Visibility: 10 miles , 16 km
2018/04/21 14:56 KHWV 211456Z AUTO 33008G21KT 10SM CLR 11/M03 A3038 RMK AO2 SLP287 T01111033 56004
 
KFRG - Farmingdale, New York, USA
Distance from station: WSW 20mi, 33km
Updated: Sat, 04/21/2018 11:07 am EDT
Few Clouds
Few Clouds
 Wind from WNW
Wind: WNW 12 mph , 19 km/h, Gust: 24 mph , 39 km/h
Temperature: 52°F , 11°C
Dew Point: 23°F , -5°C
Humidity: 32%
Barometer: 30.39 inHg , 1029.1 hPa
Clouds: Few Clouds
Visibility: 10 miles , 16 km
Cloud details: Few Clouds 200 ft
2018/04/21 15:07 KFRG 211507Z 30010G21KT 10SM FEW002 11/M05 A3039 RMK AO2 T01111050
KBDR - Bridgeport, Connecticut, USA
Distance from station: N 23mi, 37km
Updated: Sat, 04/21/2018 10:52 am EDT
Clear
Clear
 Wind from WNW
Wind: WNW 12 mph , 19 km/h
Temperature: 54°F , 12°C
Dew Point: 23°F , -5°C
Humidity: 30%
Barometer: 30.37 inHg , 1028.4 hPa
Clouds: Clear
Visibility: 10 miles , 16 km
2018/04/21 14:52 KBDR 211452Z 30010KT 10SM CLR 12/M05 A3037 RMK AO2 SLP284 T01171050 58004
 
KFOK - Westhampton Beac, New York, USA
Distance from station: E 23mi, 37km
Updated: Sat, 04/21/2018 10:53 am EDT
Clear
Clear
 Wind from WNW
Wind: WNW 14 mph , 22 km/h, Gust: 21 mph , 33 km/h
Temperature: 52°F , 11°C
Dew Point: 21°F , -6°C
Humidity: 30%
Barometer: 30.38 inHg , 1028.8 hPa
Clouds: Clear
Visibility: 10 miles , 16 km
2018/04/21 14:53 KFOK 211453Z 29012G18KT 10SM CLR 11/M06 A3038 RMK AO2 SLP288 T01061056 56003
KHVN - New Haven/Tweed, Connecticut, USA
Distance from station: NNE 31mi, 50km
Updated: Sat, 04/21/2018 10:53 am EDT
Clear
Clear
 Wind from NW
Wind: NW 9 mph , 15 km/h, Gust: 17 mph , 28 km/h
Temperature: 52°F , 11°C
Dew Point: 25°F , -4°C
Humidity: 35%
Barometer: 30.36 inHg , 1028.1 hPa
Clouds: Clear
Visibility: 10 miles , 16 km
2018/04/21 14:53 KHVN 211453Z 31008G15KT 10SM CLR 11/M04 A3036 RMK AO2 SLP281 T01111039 58005
 
KHPN - White Plains, New York, USA
Distance from station: WNW 37mi, 60km
Updated: Sat, 04/21/2018 10:56 am EDT
Clear
Clear
 Wind from WNW
Wind: WNW 13 mph , 20 km/h
Temperature: 50°F , 10°C
Wind Chill: 45°F , 7°C
Dew Point: 23°F , -5°C
Humidity: 35%
Barometer: 30.37 inHg , 1028.4 hPa
Clouds: Clear
Visibility: 10 miles , 16 km
2018/04/21 14:56 KHPN 211456Z 29011KT 10SM CLR 10/M05 A3037 RMK AO2 SLP290 T01001050 58003
KJFK - Nyc/Jfk Arpt, New York, USA
Distance from station: WSW 40mi, 64km
Updated: Sat, 04/21/2018 10:51 am EDT
Partly cloudy
Partly cloudy
 Wind from NW
Wind: NW 15 mph , 24 km/h
Temperature: 54°F , 12°C
Dew Point: 25°F , -4°C
Humidity: 33%
Barometer: 30.41 inHg , 1029.8 hPa
Clouds: Partly cloudy
Visibility: 10 miles , 16 km
Cloud details: Partly cloudy 25000 ft
2018/04/21 14:51 KJFK 211451Z 32013KT 10SM SCT250 12/M04 A3041 RMK AO2 SLP298 T01171044 58001
 
KDXR - Danbury, Connecticut, USA
Distance from station: NNW 42mi, 68km
Updated: Sat, 04/21/2018 10:53 am EDT
Clear
Clear
 Wind from NW
Wind: NW 9 mph , 15 km/h
Temperature: 48°F , 9°C
Wind Chill: 44°F , 7°C
Dew Point: 21°F , -6°C
Humidity: 34%
Barometer: 30.38 inHg , 1028.8 hPa
Clouds: Clear
Visibility: 10 miles , 16 km
2018/04/21 14:53 KDXR 211453Z 32008KT 290V010 10SM CLR 09/M06 A3038 RMK AO2 SLP289 T00941056 58004
KHTO - East Hampton, New York, USA
Distance from station: E 43mi, 69km
Updated: Sat, 04/21/2018 10:55 am EDT
Clear
Clear
 Wind from WNW
Wind: WNW 10 mph , 17 km/h, Gust: 16 mph , 26 km/h
Temperature: 48°F , 9°C
Wind Chill: 44°F , 7°C
Dew Point: 28°F , -2°C
Humidity: 46%
Barometer: 30.36 inHg , 1028.1 hPa
Clouds: Clear
Visibility: 10 miles , 16 km
2018/04/21 14:55 KHTO 211455Z AUTO 30009G14KT 10SM CLR 09/M02 A3036 RMK AO2 T00851025
 
KOXC - Oxford/Waterbury, Connecticut, USA
Distance from station: N 43mi, 70km
Updated: Sat, 04/21/2018 10:51 am EDT
Clear
Clear
 Wind from WNW
Wind: WNW 8 mph , 13 km/h, Gust: 18 mph , 30 km/h
Temperature: 46°F , 8°C
Wind Chill: 42°F , 6°C
Dew Point: 27°F , -3°C
Humidity: 46%
Barometer: 30.37 inHg , 1028.4 hPa
Clouds: Clear
Visibility: 10 miles , 16 km
2018/04/21 14:51 KOXC 211451Z 29007G16KT 260V340 10SM CLR 08/M03 A3037 RMK AO2 SLP301 T00831033 56001
KLGA - Nyc/La Guardia, New York, USA
Distance from station: W 44mi, 70km
Updated: Sat, 04/21/2018 10:51 am EDT
Partly cloudy
Partly cloudy
 Wind from NW
Wind: NW 10 mph , 17 km/h
Temperature: 52°F , 11°C
Dew Point: 25°F , -4°C
Humidity: 35%
Barometer: 30.40 inHg , 1029.5 hPa
Clouds: Partly cloudy
Visibility: 10 miles , 16 km
Cloud details: Partly cloudy 25000 ft
2018/04/21 14:51 KLGA 211451Z 32009KT 10SM SCT250 11/M04 A3040 RMK AO2 SLP294 T01111039 58003
 
KSNC - Chester, Connecticut, USA
Distance from station: NE 47mi, 76km
Updated: Sat, 04/21/2018 10:55 am EDT
Clear
Clear
 Wind from varies
Wind: varies 7 mph , 11 km/h, Gust: 15 mph , 24 km/h
Temperature: 52°F , 11°C
Dew Point: 23°F , -5°C
Humidity: 32%
Barometer: 30.34 inHg , 1027.4 hPa
Clouds: Clear
Visibility: 10 miles , 16 km
2018/04/21 14:55 KSNC 211455Z AUTO VRB06G13KT 10SM CLR 11/M05 A3034 RMK AO2
KMMK - Meriden, Connecticut, USA
Distance from station: NNE 48mi, 77km
Updated: Sat, 04/21/2018 10:53 am EDT
Clear
Clear
 Wind from WNW
Wind: WNW 13 mph , 20 km/h, Gust: 23 mph , 37 km/h
Temperature: 50°F , 10°C
Wind Chill: 45°F , 7°C
Dew Point: 25°F , -4°C
Humidity: 37%
Barometer: 30.36 inHg , 1028.1 hPa
Clouds: Clear
Visibility: 10 miles , 16 km
2018/04/21 14:53 KMMK 211453Z AUTO 29011G20KT 10SM CLR 10/M04 A3036 RMK AO2 SLP280 T01001039 58006
 
KNYC - Nyc/Central Park, New York, USA
Distance from station: W 48mi, 77km
Updated: Sat, 04/21/2018 10:51 am EDT
Clear
Clear
 Wind from NW
Wind: NW 8 mph , 13 km/h
Temperature: 52°F , 11°C
Dew Point: 23°F , -5°C
Humidity: 32%
Barometer: 30.43 inHg , 1030.5 hPa
Clouds: Clear
Visibility: 10 miles , 16 km
2018/04/21 14:51 KNYC 211451Z AUTO 32007KT 10SM CLR 11/M05 A3043 RMK AO2 SLP295 T01111050 58002 $